Time;durP1;ratioP1;P1;durP2;ratioP2;P2;SDS_P1;SDS_P2;PMS_P1;PMS_P2;Temp;Humidity;BMP_temperature;BMP_pressure;BME280_temperature;BME280_humidity;BME280_pressure;Samples;Min_cycle;Max_cycle;Signal;HPM_P1;HPM_P2
2021/12/19 00:00:46;;;;;;;1.80;1.10;;;20.90;52.40;;;;;;5062963;28;20036;-72
2021/12/19 00:08:49;;;;;;;1.88;0.88;;;20.90;52.40;;;;;;5088384;28;20052;-74
2021/12/19 00:11:22;;;;;;;3.65;1.10;;;20.90;52.40;;;;;;5062668;28;20048;-74
2021/12/19 00:13:48;;;;;;;2.03;0.80;;;20.90;52.40;;;;;;5061666;28;20131;-73
2021/12/19 00:16:14;;;;;;;3.13;0.90;;;20.90;52.40;;;;;;5063271;28;20108;-74
2021/12/19 00:18:43;;;;;;;2.90;0.90;;;20.90;52.50;;;;;;5061346;28;20137;-73
2021/12/19 00:21:10;;;;;;;2.10;0.98;;;20.90;52.50;;;;;;5062876;28;20369;-74
2021/12/19 00:23:37;;;;;;;3.63;1.00;;;20.80;52.50;;;;;;5060832;28;20381;-74
2021/12/19 00:26:02;;;;;;;1.75;1.02;;;20.80;52.50;;;;;;5063320;28;20314;-73
2021/12/19 00:28:29;;;;;;;3.00;1.25;;;20.80;52.50;;;;;;5046176;28;20045;-74
2021/12/19 00:30:54;;;;;;;2.05;0.90;;;20.80;52.50;;;;;;5063858;28;20118;-74
2021/12/19 00:33:20;;;;;;;1.77;1.05;;;20.80;52.40;;;;;;5063153;28;20044;-74
2021/12/19 00:35:46;;;;;;;1.52;0.85;;;20.80;52.50;;;;;;5064111;28;20382;-72
2021/12/19 00:38:12;;;;;;;4.07;1.05;;;20.80;52.50;;;;;;5060640;28;20132;-74
2021/12/19 00:40:38;;;;;;;2.63;1.02;;;20.80;52.50;;;;;;5063375;28;20139;-72
2021/12/19 00:43:09;;;;;;;3.67;1.00;;;20.80;52.50;;;;;;5063908;28;20403;-74
2021/12/19 00:45:36;;;;;;;4.28;1.00;;;20.80;52.50;;;;;;5061259;28;20053;-69
2021/12/19 00:48:04;;;;;;;1.63;0.90;;;20.80;52.50;;;;;;5063723;28;20052;-71
2021/12/19 00:50:32;;;;;;;1.98;1.10;;;20.80;52.50;;;;;;5045276;28;20032;-72
2021/12/19 00:52:58;;;;;;;1.60;0.95;;;20.80;52.50;;;;;;5065963;28;20470;-69
2021/12/19 00:55:27;;;;;;;2.22;1.02;;;20.80;52.50;;;;;;5061880;28;20131;-69
2021/12/19 00:57:53;;;;;;;1.27;0.93;;;20.80;52.50;;;;;;5066086;28;20048;-70
2021/12/19 01:00:22;;;;;;;3.10;0.82;;;20.80;52.50;;;;;;5062415;28;20036;-71
2021/12/19 01:02:51;;;;;;;;;;;20.80;52.50;;;;;;5062865;28;20419;-71
2021/12/19 01:05:17;;;;;;;1.73;0.90;;;20.80;52.60;;;;;;5063601;28;19924;-71
2021/12/19 01:07:43;;;;;;;1.25;0.93;;;20.80;52.60;;;;;;5066115;28;20083;-69
2021/12/19 01:10:09;;;;;;;1.60;0.73;;;20.80;52.60;;;;;;5068485;28;20080;-71
2021/12/19 01:12:38;;;;;;;1.42;0.82;;;20.80;52.60;;;;;;5065956;28;20383;-71
2021/12/19 01:15:07;;;;;;;1.58;1.00;;;20.80;52.60;;;;;;5065980;28;20044;-70
2021/12/19 01:17:32;;;;;;;1.98;0.90;;;20.80;52.60;;;;;;5082808;28;20118;-72
2021/12/19 01:19:58;;;;;;;1.27;0.80;;;20.80;52.60;;;;;;5066201;28;20435;-70
2021/12/19 01:22:23;;;;;;;1.83;0.98;;;20.80;52.60;;;;;;5068676;28;20047;-72
2021/12/19 01:24:49;;;;;;;1.33;1.00;;;20.70;52.50;;;;;;5065434;28;20040;-72
2021/12/19 01:27:14;;;;;;;0.77;0.60;;;20.80;52.60;;;;;;5067088;28;20047;-69
2021/12/19 01:29:40;;;;;;;1.20;0.68;;;20.80;52.60;;;;;;5065341;28;20768;-69
2021/12/19 01:32:06;;;;;;;1.83;0.80;;;20.80;52.60;;;;;;5066111;28;20484;-70
2021/12/19 01:34:31;;;;;;;1.50;0.65;;;20.80;52.60;;;;;;5065022;28;20037;-74
2021/12/19 01:36:57;;;;;;;1.27;0.88;;;20.80;52.60;;;;;;5065452;28;20087;-74
2021/12/19 01:39:23;;;;;;;2.78;0.82;;;20.70;52.50;;;;;;5066970;28;20048;-74
2021/12/19 01:41:51;;;;;;;1.02;0.80;;;20.80;52.50;;;;;;5063401;28;20560;-71
2021/12/19 01:44:18;;;;;;;1.38;0.82;;;20.80;52.50;;;;;;5065100;28;20040;-72
2021/12/19 01:46:46;;;;;;;1.08;0.75;;;20.70;52.50;;;;;;5063080;28;20037;-72
2021/12/19 01:49:12;;;;;;;2.05;0.82;;;20.70;52.50;;;;;;5048325;28;20080;-71
2021/12/19 01:51:38;;;;;;;2.58;0.60;;;20.80;52.60;;;;;;5065434;28;20139;-72
2021/12/19 01:54:04;;;;;;;1.35;0.80;;;20.80;52.60;;;;;;5066636;28;20859;-72
2021/12/19 01:56:31;;;;;;;3.22;0.90;;;20.80;52.60;;;;;;5065463;28;20098;-72
2021/12/19 01:58:57;;;;;;;0.90;0.70;;;20.80;52.60;;;;;;5065412;28;20052;-70
2021/12/19 02:01:22;;;;;;;1.63;0.77;;;20.80;52.60;;;;;;5064793;28;20052;-72
2021/12/19 02:03:48;;;;;;;1.90;1.02;;;20.80;52.60;;;;;;5066082;28;20051;-72
2021/12/19 02:06:14;;;;;;;0.80;0.80;;;20.80;52.60;;;;;;5066445;28;20042;-71
2021/12/19 02:08:40;;;;;;;1.13;0.80;;;20.70;52.50;;;;;;5064916;28;20028;-72
2021/12/19 02:11:07;;;;;;;0.82;0.73;;;20.80;52.60;;;;;;5068785;28;20044;-71
2021/12/19 02:13:33;;;;;;;1.52;0.70;;;20.80;52.60;;;;;;5066140;28;20617;-71
2021/12/19 02:15:59;;;;;;;1.40;0.70;;;20.70;52.50;;;;;;5062337;28;20040;-71
2021/12/19 02:18:25;;;;;;;0.90;0.70;;;20.70;52.50;;;;;;5057856;28;20135;-72
2021/12/19 02:20:55;;;;;;;0.73;0.70;;;20.80;52.60;;;;;;5066626;28;20055;-70
2021/12/19 02:23:24;;;;;;;2.45;0.60;;;20.80;52.60;;;;;;5067388;28;20037;-71
2021/12/19 02:25:50;;;;;;;0.90;0.63;;;20.70;52.60;;;;;;5064683;28;20055;-71
2021/12/19 02:28:17;;;;;;;2.30;0.60;;;20.70;52.50;;;;;;5066596;28;20048;-72
2021/12/19 02:30:43;;;;;;;0.70;0.70;;;20.70;52.50;;;;;;5065241;28;20048;-72
2021/12/19 02:33:13;;;;;;;1.63;0.65;;;20.70;52.60;;;;;;5062813;28;20049;-72
2021/12/19 02:35:42;;;;;;;2.28;0.85;;;20.70;52.60;;;;;;5072792;28;20385;-70
2021/12/19 02:48:49;;;;;;;1.55;0.80;;;20.70;52.40;;;;;;5066602;28;20095;-70
2021/12/19 02:51:15;;;;;;;0.90;0.50;;;20.70;52.40;;;;;;5054207;28;20048;-71
2021/12/19 02:53:42;;;;;;;1.45;0.60;;;20.70;52.50;;;;;;5067276;28;20035;-70
2021/12/19 02:56:11;;;;;;;1.13;0.73;;;20.70;52.50;;;;;;5066453;28;20048;-70
2021/12/19 02:58:39;;;;;;;0.70;0.50;;;20.70;52.50;;;;;;5067268;28;20044;-70
2021/12/19 03:01:12;;;;;;;0.47;0.47;;;20.70;52.50;;;;;;5066637;28;20044;-71
2021/12/19 03:03:37;;;;;;;0.60;0.50;;;20.70;52.50;;;;;;5066707;28;20045;-71
2021/12/19 03:06:05;;;;;;;0.90;0.63;;;20.70;52.50;;;;;;5059339;28;20645;-71
2021/12/19 03:08:31;;;;;;;1.13;0.70;;;20.70;52.60;;;;;;5050202;28;20051;-70
2021/12/19 03:11:30;;;;;;;0.80;0.60;;;20.70;52.50;;;;;;5066499;28;20048;-71
2021/12/19 03:18:58;;;;;;;0.75;0.47;;;20.70;52.50;;;;;;5066988;28;20677;-70
2021/12/19 03:21:25;;;;;;;0.82;0.70;;;20.70;52.50;;;;;;5065270;28;20051;-72
2021/12/19 03:23:51;;;;;;;1.15;0.60;;;20.70;52.50;;;;;;5066532;28;20089;-72
2021/12/19 03:26:16;;;;;;;1.08;0.50;;;20.70;52.50;;;;;;5063312;28;20052;-71
2021/12/19 03:28:42;;;;;;;0.85;0.45;;;20.70;52.50;;;;;;5065514;28;20395;-72
2021/12/19 03:31:08;;;;;;;0.93;0.50;;;20.70;52.50;;;;;;5063637;28;20054;-71
2021/12/19 03:33:35;;;;;;;0.98;0.60;;;20.70;52.50;;;;;;5066727;28;20041;-71
2021/12/19 03:36:02;;;;;;;0.63;0.43;;;20.70;52.60;;;;;;5065148;28;20139;-71
2021/12/19 03:38:28;;;;;;;1.77;0.60;;;20.70;52.50;;;;;;5066575;28;20036;-71
2021/12/19 03:43:38;;;;;;;0.95;0.52;;;20.70;52.50;;;;;;5057831;28;20048;-71
2021/12/19 03:46:04;;;;;;;0.52;0.52;;;20.70;52.60;;;;;;5039870;28;20392;-72
2021/12/19 03:48:29;;;;;;;0.77;0.50;;;20.70;52.50;;;;;;5050135;28;20072;-71
2021/12/19 03:50:55;;;;;;;0.40;0.40;;;20.70;52.50;;;;;;5067054;28;20500;-72
2021/12/19 03:53:22;;;;;;;0.70;0.50;;;20.70;52.50;;;;;;5064990;28;20044;-70
2021/12/19 03:55:50;;;;;;;0.50;0.40;;;20.70;52.50;;;;;;5062432;28;20120;-72
2021/12/19 03:58:16;;;;;;;0.68;0.40;;;20.60;52.50;;;;;;5048719;28;20036;-72
2021/12/19 04:00:43;;;;;;;0.45;0.45;;;20.70;52.60;;;;;;5063037;28;20401;-71
2021/12/19 04:03:10;;;;;;;1.00;0.60;;;20.70;52.60;;;;;;5065395;28;20072;-72
2021/12/19 04:05:40;;;;;;;1.17;0.50;;;20.70;52.50;;;;;;5063220;28;20595;-71
2021/12/19 04:08:06;;;;;;;0.88;0.45;;;20.70;52.50;;;;;;5066023;28;20051;-71
2021/12/19 04:10:31;;;;;;;0.55;0.50;;;20.60;52.40;;;;;;5066174;28;20036;-72
2021/12/19 04:12:57;;;;;;;0.63;0.50;;;20.70;52.50;;;;;;5065737;28;20058;-72
2021/12/19 04:15:23;;;;;;;0.57;0.40;;;20.70;52.50;;;;;;5079953;28;20048;-72
2021/12/19 04:17:49;;;;;;;0.38;0.38;;;20.60;52.40;;;;;;5063821;28;20511;-71
2021/12/19 04:20:15;;;;;;;0.70;0.50;;;20.70;52.50;;;;;;5064979;28;20052;-71
2021/12/19 04:22:42;;;;;;;0.82;0.50;;;20.70;52.50;;;;;;5064374;28;20045;-71
2021/12/19 04:25:08;;;;;;;0.70;0.50;;;20.70;52.50;;;;;;5062927;28;20117;-71
2021/12/19 04:27:34;;;;;;;0.85;0.40;;;20.60;52.50;;;;;;5065472;28;20048;-71
2021/12/19 04:30:00;;;;;;;1.35;0.38;;;20.70;52.50;;;;;;5064020;28;20059;-70
2021/12/19 04:32:31;;;;;;;0.50;0.32;;;20.70;52.50;;;;;;5064263;28;20067;-72
2021/12/19 04:34:58;;;;;;;1.10;0.40;;;20.70;52.50;;;;;;5062999;28;20515;-71
2021/12/19 04:40:20;;;;;;;0.68;0.60;;;20.60;52.40;;;;;;5057970;28;20048;-71
2021/12/19 04:51:47;;;;;;;0.70;0.50;;;20.60;52.40;;;;;;5050633;28;20049;-70
2021/12/19 04:57:25;;;;;;;0.50;0.40;;;20.60;52.50;;;;;;5063088;28;20040;-70
2021/12/19 05:02:12;;;;;;;1.35;0.40;;;20.60;52.40;;;;;;5043245;28;20098;-70
2021/12/19 05:15:36;;;;;;;0.90;0.40;;;20.60;52.50;;;;;;5061580;28;20059;-72
2021/12/19 05:18:04;;;;;;;0.55;0.50;;;20.60;52.50;;;;;;5064070;28;20135;-71
2021/12/19 05:20:31;;;;;;;0.50;0.30;;;20.60;52.50;;;;;;5066133;28;20056;-71
2021/12/19 05:23:05;;;;;;;0.40;0.40;;;20.60;52.50;;;;;;5064801;28;20518;-72
2021/12/19 05:25:30;;;;;;;1.45;0.40;;;20.60;52.50;;;;;;5064948;28;20128;-70
2021/12/19 05:27:57;;;;;;;1.38;0.45;;;20.60;52.50;;;;;;5061086;28;20187;-72
2021/12/19 05:30:27;;;;;;;1.02;0.40;;;20.60;52.50;;;;;;5063507;28;20029;-71
2021/12/19 05:32:54;;;;;;;0.73;0.40;;;20.60;52.50;;;;;;5063712;28;20106;-71
2021/12/19 05:35:57;;;;;;;0.87;0.40;;;20.60;52.50;;;;;;5064256;28;20474;-72
2021/12/19 05:46:21;;;;;;;1.23;0.50;;;20.60;52.50;;;;;;5064041;28;20416;-72
2021/12/19 05:48:47;;;;;;;1.02;0.50;;;20.60;52.50;;;;;;5062984;28;20052;-72
2021/12/19 05:51:13;;;;;;;1.10;0.47;;;20.60;52.50;;;;;;5064494;28;20122;-71
2021/12/19 05:53:38;;;;;;;1.08;0.52;;;20.60;52.50;;;;;;5065046;28;20496;-70
2021/12/19 05:56:04;;;;;;;2.17;0.60;;;20.60;52.50;;;;;;5068135;28;20032;-71
2021/12/19 05:58:30;;;;;;;1.40;0.57;;;20.60;52.50;;;;;;5066726;28;20063;-71
2021/12/19 06:00:55;;;;;;;2.35;0.60;;;20.60;52.50;;;;;;5067627;28;20037;-71
2021/12/19 06:03:21;;;;;;;2.05;0.40;;;20.60;52.50;;;;;;5068244;28;20039;-71
2021/12/19 06:05:47;;;;;;;1.85;0.52;;;20.60;52.50;;;;;;5066221;28;20529;-71
2021/12/19 06:08:12;;;;;;;3.15;0.70;;;20.60;52.60;;;;;;5067894;28;20639;-71
2021/12/19 06:10:38;;;;;;;2.13;0.50;;;20.60;52.50;;;;;;5068007;28;20600;-70
2021/12/19 06:13:03;;;;;;;1.23;0.43;;;20.60;52.50;;;;;;5067822;28;20555;-71
2021/12/19 06:15:29;;;;;;;1.42;0.57;;;20.60;52.50;;;;;;5061346;28;20519;-70
2021/12/19 06:17:54;;;;;;;1.90;0.75;;;20.60;52.50;;;;;;5067528;28;20072;-70
2021/12/19 06:20:21;;;;;;;2.08;0.50;;;20.60;52.50;;;;;;5067503;28;20604;-71
2021/12/19 06:22:46;;;;;;;1.58;0.60;;;20.60;52.50;;;;;;5050294;28;20048;-70
2021/12/19 06:25:12;;;;;;;1.75;0.80;;;20.60;52.50;;;;;;5067244;28;20381;-70
2021/12/19 06:27:38;;;;;;;2.55;0.80;;;20.60;52.50;;;;;;5066181;28;20052;-71
2021/12/19 06:30:06;;;;;;;2.53;0.77;;;20.60;52.50;;;;;;5067807;28;20032;-70
2021/12/19 06:32:31;;;;;;;1.95;0.73;;;20.60;52.50;;;;;;5066137;28;20088;-71
2021/12/19 06:34:59;;;;;;;1.75;0.80;;;20.60;52.50;;;;;;5066365;28;20084;-70
2021/12/19 06:37:25;;;;;;;3.17;0.85;;;20.60;52.60;;;;;;5081972;28;20048;-69
2021/12/19 06:39:51;;;;;;;2.58;1.00;;;20.60;52.50;;;;;;5067782;28;20036;-71
2021/12/19 06:42:16;;;;;;;1.70;1.00;;;20.60;52.50;;;;;;5066568;28;20039;-72
2021/12/19 06:44:42;;;;;;;2.47;0.90;;;20.60;52.50;;;;;;5065137;28;20682;-72
2021/12/19 06:47:07;;;;;;;4.65;0.90;;;20.50;52.40;;;;;;5066467;28;20052;-72
2021/12/19 06:49:33;;;;;;;2.85;0.80;;;20.60;52.50;;;;;;5048869;28;20040;-72
2021/12/19 06:51:59;;;;;;;1.20;0.73;;;20.60;52.50;;;;;;5048121;28;20094;-71
2021/12/19 06:54:24;;;;;;;1.75;0.93;;;20.60;52.40;;;;;;5044781;28;20164;-72
2021/12/19 06:56:50;;;;;;;1.60;0.90;;;20.60;52.40;;;;;;5055689;28;20075;-71
2021/12/19 06:59:15;;;;;;;2.42;0.77;;;20.50;52.40;;;;;;5056154;28;20389;-72
2021/12/19 07:01:41;;;;;;;1.98;0.95;;;20.50;52.40;;;;;;5061381;28;20048;-72
2021/12/19 07:04:06;;;;;;;2.58;0.95;;;20.60;52.50;;;;;;5064960;28;20120;-72
2021/12/19 07:06:32;;;;;;;3.22;0.88;;;20.60;52.50;;;;;;5066594;28;20043;-71
2021/12/19 07:08:58;;;;;;;1.35;0.90;;;20.60;52.50;;;;;;5068110;28;20048;-71
2021/12/19 07:11:24;;;;;;;2.92;0.90;;;20.60;52.50;;;;;;5066163;28;20044;-72
2021/12/19 07:13:50;;;;;;;2.85;1.10;;;20.60;52.50;;;;;;5064996;28;20084;-71
2021/12/19 07:16:16;;;;;;;2.30;0.90;;;20.60;52.40;;;;;;5064644;28;20041;-71
2021/12/19 07:18:44;;;;;;;2.33;0.85;;;20.60;52.40;;;;;;5067566;28;20074;-71
2021/12/19 07:21:09;;;;;;;2.70;0.98;;;20.60;52.50;;;;;;5064731;28;20050;-71
2021/12/19 07:23:35;;;;;;;4.53;1.10;;;20.50;52.40;;;;;;5066058;28;20048;-72
2021/12/19 07:26:01;;;;;;;2.22;1.05;;;20.60;52.50;;;;;;5065744;28;20076;-72
2021/12/19 07:28:27;;;;;;;1.63;0.80;;;20.60;52.50;;;;;;5062116;28;20075;-72
2021/12/19 07:30:53;;;;;;;2.25;0.90;;;20.60;52.50;;;;;;5058969;28;20049;-71
2021/12/19 07:33:19;;;;;;;2.55;1.00;;;20.60;52.50;;;;;;5066066;28;20553;-71
2021/12/19 07:35:47;;;;;;;1.73;0.75;;;20.60;52.40;;;;;;5065512;28;20076;-71
2021/12/19 07:38:21;;;;;;;2.60;1.05;;;20.60;52.40;;;;;;5064309;28;20040;-70
2021/12/19 07:40:50;;;;;;;1.48;0.90;;;20.60;52.40;;;;;;5063260;28;20034;-70
2021/12/19 07:43:17;;;;;;;4.07;1.25;;;20.60;52.40;;;;;;5061192;28;20056;-70
2021/12/19 07:45:44;;;;;;;2.65;1.00;;;20.60;52.50;;;;;;5063111;28;20109;-69
2021/12/19 07:48:10;;;;;;;4.15;1.00;;;20.60;52.50;;;;;;5065538;28;20099;-71
2021/12/19 07:50:36;;;;;;;2.05;0.90;;;20.60;52.50;;;;;;5064669;28;20044;-73
2021/12/19 07:53:03;;;;;;;4.25;1.10;;;20.60;52.50;;;;;;5067316;28;20040;-68
2021/12/19 07:55:29;;;;;;;5.07;1.10;;;20.60;52.60;;;;;;5052095;28;20049;-69
2021/12/19 07:57:54;;;;;;;3.13;1.08;;;20.60;52.60;;;;;;5057479;28;20381;-71
2021/12/19 08:00:20;;;;;;;6.68;1.33;;;20.60;52.70;;;;;;5065609;28;20045;-70
2021/12/19 08:02:47;;;;;;;4.40;1.23;;;20.60;52.70;;;;;;5064730;28;20514;-70
2021/12/19 08:05:15;;;;;;;5.28;0.95;;;20.60;52.80;;;;;;5064273;28;20475;-70
2021/12/19 08:07:42;;;;;;;3.78;1.20;;;20.60;52.80;;;;;;5065088;28;20396;-69
2021/12/19 08:12:42;;;;;;;2.78;1.17;;;20.60;52.90;;;;;;5051800;28;20045;-69
2021/12/19 08:15:09;;;;;;;7.78;1.50;;;20.70;53.20;;;;;;5056967;28;20393;-68
2021/12/19 08:17:35;;;;;;;15.98;10.38;;;20.70;53.40;;;;;;5064080;28;20056;-69
2021/12/19 08:20:02;;;;;;;10.93;5.55;;;20.70;53.60;;;;;;5063144;28;20044;-69
2021/12/19 08:22:29;;;;;;;7.97;4.63;;;20.70;53.80;;;;;;5048698;28;20041;-70
2021/12/19 08:24:57;;;;;;;9.32;4.35;;;20.80;53.90;;;;;;5057696;28;20048;-70
2021/12/19 08:27:23;;;;;;;9.07;4.28;;;20.80;53.90;;;;;;5050792;28;20412;-68
2021/12/19 08:29:48;;;;;;;7.60;3.92;;;20.80;54.00;;;;;;5062558;28;20033;-68
2021/12/19 08:32:15;;;;;;;8.70;3.90;;;20.80;54.10;;;;;;5061981;28;20041;-68
2021/12/19 08:34:41;;;;;;;7.60;3.72;;;20.80;54.10;;;;;;5053404;28;20127;-72
2021/12/19 08:37:07;;;;;;;11.23;3.83;;;20.70;54.00;;;;;;5060094;28;20128;-69
2021/12/19 08:39:33;;;;;;;7.05;3.50;;;20.80;54.10;;;;;;5061924;28;20045;-72
2021/12/19 08:41:59;;;;;;;9.27;3.60;;;20.80;54.20;;;;;;5055974;28;20040;-71
2021/12/19 08:44:25;;;;;;;7.68;3.40;;;20.90;54.20;;;;;;5063012;28;20045;-72
2021/12/19 08:46:51;;;;;;;6.47;3.67;;;20.90;54.20;;;;;;5078888;28;20250;-71
2021/12/19 08:49:16;;;;;;;9.65;3.58;;;20.90;55.00;;;;;;5065232;28;20124;-72
2021/12/19 08:51:42;;;;;;;8.25;3.53;;;20.90;54.20;;;;;;5064256;28;20130;-74
2021/12/19 08:54:08;;;;;;;6.68;3.40;;;20.90;54.10;;;;;;5064316;28;20156;-69
2021/12/19 08:56:34;;;;;;;9.43;3.80;;;20.90;54.20;;;;;;5061109;28;20553;-74
2021/12/19 08:59:00;;;;;;;9.23;3.50;;;20.90;54.20;;;;;;5058646;28;20037;-71
2021/12/19 09:01:31;;;;;;;7.50;2.95;;;20.90;54.10;;;;;;5059107;28;20063;-74
2021/12/19 09:03:57;;;;;;;8.13;3.20;;;20.90;54.10;;;;;;5059783;28;20045;-75
2021/12/19 09:06:23;;;;;;;6.63;3.15;;;21.00;54.20;;;;;;5061669;28;20500;-71
2021/12/19 09:08:49;;;;;;;8.82;3.15;;;21.00;55.10;;;;;;5058876;28;20041;-68
2021/12/19 09:11:14;;;;;;;6.00;3.20;;;21.00;54.30;;;;;;5061461;28;20067;-72
2021/12/19 09:13:40;;;;;;;5.05;2.55;;;21.00;54.30;;;;;;5026068;28;20496;-71
2021/12/19 09:16:06;;;;;;;4.95;3.13;;;21.00;54.70;;;;;;5062215;28;20029;-69
2021/12/19 09:18:31;;;;;;;6.40;2.85;;;21.00;54.30;;;;;;5060532;28;20059;-68
2021/12/19 09:20:57;;;;;;;5.90;3.17;;;21.00;54.30;;;;;;5061756;28;20041;-71
2021/12/19 09:23:23;;;;;;;4.97;2.90;;;21.00;54.20;;;;;;5060889;28;20044;-71
2021/12/19 09:25:49;;;;;;;5.40;2.90;;;21.00;54.20;;;;;;5059534;28;20076;-72
2021/12/19 09:28:15;;;;;;;4.93;2.70;;;21.00;55.00;;;;;;5065192;28;20146;-72
2021/12/19 09:30:42;;;;;;;6.00;3.03;;;21.00;54.10;;;;;;5062328;28;20070;-70
2021/12/19 09:33:08;;;;;;;6.18;2.85;;;21.00;54.10;;;;;;5063171;28;20032;-71
2021/12/19 09:35:34;;;;;;;8.85;2.80;;;21.00;54.10;;;;;;5066067;28;20098;-68
2021/12/19 09:38:01;;;;;;;7.72;3.08;;;21.00;54.10;;;;;;5050621;28;20053;-69
2021/12/19 09:40:33;;;;;;;4.43;2.45;;;21.00;54.10;;;;;;5061243;28;20040;-70
2021/12/19 09:43:09;;;;;;;5.57;2.80;;;21.00;54.10;;;;;;5072915;28;20033;-70
2021/12/19 09:45:36;;;;;;;5.70;2.47;;;21.00;54.00;;;;;;5058026;28;20118;-69
2021/12/19 09:48:02;;;;;;;8.60;2.55;;;21.00;54.00;;;;;;5056092;28;20495;-70
2021/12/19 09:50:28;;;;;;;82.03;6.88;;;21.00;53.90;;;;;;5083550;28;20124;-68
2021/12/19 09:52:54;;;;;;;39.03;4.50;;;21.00;53.80;;;;;;5057735;28;20119;-69
2021/12/19 09:55:21;;;;;;;25.85;3.67;;;21.00;53.80;;;;;;5060932;28;20123;-71
2021/12/19 09:57:49;;;;;;;27.05;3.75;;;21.00;53.80;;;;;;5061658;28;20044;-71
2021/12/19 10:00:16;;;;;;;22.25;3.17;;;21.00;53.90;;;;;;5062727;28;20071;-72
2021/12/19 10:02:42;;;;;;;25.25;3.63;;;21.00;53.90;;;;;;5060241;28;20036;-73
2021/12/19 10:05:23;;;;;;;23.55;3.20;;;21.00;53.90;;;;;;5060002;28;20040;-72
2021/12/19 10:07:55;;;;;;;20.42;3.67;;;21.00;53.90;;;;;;5060632;28;20496;-71
2021/12/19 10:10:36;;;;;;;15.27;3.03;;;21.00;53.90;;;;;;5059629;28;20085;-71
2021/12/19 10:13:02;;;;;;;17.73;3.40;;;21.00;53.90;;;;;;5057978;28;20044;-73
2021/12/19 10:15:34;;;;;;;18.23;2.92;;;21.00;54.60;;;;;;5065583;28;20071;-71
2021/12/19 10:18:04;;;;;;;21.27;2.92;;;21.00;53.80;;;;;;5064670;28;20062;-72
2021/12/19 10:21:00;;;;;;;13.88;2.92;;;21.00;53.80;;;;;;5050172;28;20044;-71
2021/12/19 10:23:36;;;;;;;16.95;3.40;;;21.00;53.60;;;;;;5043780;28;20566;-71
2021/12/19 10:26:08;;;;;;;13.10;2.67;;;21.00;53.60;;;;;;5063834;28;20032;-71
2021/12/19 10:28:49;;;;;;;24.45;3.28;;;21.00;53.60;;;;;;5063763;28;20044;-71
2021/12/19 10:31:14;;;;;;;20.15;2.97;;;21.00;53.50;;;;;;5087701;28;20446;-72
2021/12/19 10:33:41;;;;;;;15.32;3.15;;;21.00;53.30;;;;;;5064805;28;20127;-67
2021/12/19 10:36:09;;;;;;;17.70;3.13;;;21.00;53.30;;;;;;5066237;28;20123;-71
2021/12/19 10:38:43;;;;;;;16.58;2.60;;;21.00;53.30;;;;;;5063139;28;20086;-68
2021/12/19 10:41:20;;;;;;;9.20;2.75;;;21.00;53.30;;;;;;5065446;28;20041;-67
2021/12/19 10:44:05;;;;;;;13.85;2.80;;;21.00;53.20;;;;;;5064308;28;20037;-69
2021/12/19 10:46:39;;;;;;;13.07;2.45;;;20.90;53.20;;;;;;5062045;28;20032;-70
2021/12/19 10:49:22;;;;;;;19.63;2.58;;;21.00;53.20;;;;;;5063179;28;20041;-73
2021/12/19 10:51:49;;;;;;;12.65;2.70;;;20.90;53.20;;;;;;5062429;28;20040;-75
2021/12/19 10:54:15;;;;;;;14.93;2.40;;;20.90;53.30;;;;;;5064361;28;20033;-71
2021/12/19 10:56:41;;;;;;;13.82;2.55;;;21.00;53.50;;;;;;5066554;28;20039;-78
2021/12/19 10:59:14;;;;;;;16.90;2.78;;;21.00;53.70;;;;;;5063774;28;20056;-76
2021/12/19 11:01:47;;;;;;;15.50;2.92;;;21.00;54.00;;;;;;5057481;28;20033;-76
2021/12/19 11:04:23;;;;;;;19.83;2.65;;;21.00;54.30;;;;;;5061290;28;20190;-76
2021/12/19 11:06:54;;;;;;;16.65;2.72;;;21.10;54.50;;;;;;5062776;28;20036;-74
2021/12/19 11:09:32;;;;;;;11.40;2.70;;;21.10;54.50;;;;;;5061500;28;20048;-74
2021/12/19 11:12:00;;;;;;;21.10;2.67;;;21.10;54.60;;;;;;5064441;28;20033;-77
2021/12/19 11:14:27;;;;;;;;;;;21.10;54.70;;;;;;5058337;28;20048;-78
2021/12/19 11:17:00;;;;;;;9.27;2.20;;;21.20;54.90;;;;;;5042594;28;20392;-77
2021/12/19 11:19:27;;;;;;;20.95;3.05;;;21.10;54.50;;;;;;5060383;28;20055;-75
2021/12/19 11:21:53;;;;;;;11.20;2.45;;;21.10;54.60;;;;;;5060573;28;20404;-75
2021/12/19 11:24:20;;;;;;;18.45;3.05;;;21.10;54.60;;;;;;5079577;28;20037;-73
2021/12/19 11:26:57;;;;;;;15.30;2.88;;;21.10;54.80;;;;;;5060506;28;20427;-73
2021/12/19 11:29:23;;;;;;;8.38;2.67;;;21.10;54.70;;;;;;5062831;28;20048;-73
2021/12/19 11:31:58;;;;;;;11.18;2.25;;;21.10;54.70;;;;;;5062095;28;20132;-74
2021/12/19 11:35:04;;;;;;;5.80;2.22;;;21.10;54.60;;;;;;5061808;28;20102;-73
2021/12/19 11:37:32;;;;;;;8.88;3.25;;;21.10;54.50;;;;;;5063118;28;20044;-73
2021/12/19 11:39:58;;;;;;;10.50;2.28;;;21.10;54.70;;;;;;5060424;28;20180;-75
2021/12/19 11:42:35;;;;;;;12.95;2.50;;;21.10;54.40;;;;;;5061168;28;20048;-75
2021/12/19 11:45:22;;;;;;;7.90;2.58;;;21.10;54.30;;;;;;5060381;28;20045;-72
2021/12/19 11:47:56;;;;;;;7.85;2.30;;;21.10;54.30;;;;;;5057968;28;20504;-74
2021/12/19 11:50:25;;;;;;;7.70;2.13;;;21.00;54.30;;;;;;5054041;28;20059;-77
2021/12/19 11:53:11;;;;;;;7.15;2.35;;;21.10;54.30;;;;;;5046011;28;20548;-76
2021/12/19 11:55:38;;;;;;;14.00;2.50;;;21.00;54.30;;;;;;5062058;28;20040;-75
2021/12/19 11:58:13;;;;;;;12.35;2.25;;;21.00;54.20;;;;;;5062263;28;20069;-75
2021/12/19 12:01:01;;;;;;;14.35;2.60;;;21.00;54.20;;;;;;5059960;28;20105;-76
2021/12/19 12:03:31;;;;;;;13.05;2.60;;;21.00;54.00;;;;;;5059854;28;20103;-73
2021/12/19 12:06:17;;;;;;;10.27;2.22;;;21.00;54.10;;;;;;5060359;28;20294;-74
2021/12/19 12:09:02;;;;;;;13.80;2.47;;;21.00;54.00;;;;;;5062497;28;20045;-74
2021/12/19 12:11:29;;;;;;;9.57;2.28;;;21.00;54.00;;;;;;5052261;28;20060;-73
2021/12/19 12:14:14;;;;;;;13.73;2.30;;;21.00;54.00;;;;;;5065216;28;20044;-76
2021/12/19 12:16:55;;;;;;;13.18;1.90;;;21.00;54.00;;;;;;5058788;28;20138;-75
2021/12/19 12:19:41;;;;;;;13.55;2.38;;;21.00;53.90;;;;;;5055747;28;20064;-73
2021/12/19 12:22:27;;;;;;;8.18;2.40;;;21.00;53.80;;;;;;5077841;28;20045;-73
2021/12/19 12:25:02;;;;;;;10.30;2.30;;;21.00;53.80;;;;;;5060935;28;20044;-76
2021/12/19 12:27:35;;;;;;;10.25;2.45;;;21.00;53.80;;;;;;5086692;28;20493;-74
2021/12/19 12:30:04;;;;;;;11.57;2.33;;;21.00;53.80;;;;;;5058905;28;20074;-74
2021/12/19 12:32:30;;;;;;;7.97;2.40;;;21.00;53.80;;;;;;5061525;28;20055;-75
2021/12/19 12:34:58;;;;;;;9.23;2.00;;;21.00;53.80;;;;;;5044359;28;20448;-73
2021/12/19 12:37:27;;;;;;;11.55;2.28;;;21.00;53.80;;;;;;5060430;28;20048;-78
2021/12/19 12:40:17;;;;;;;;;;;21.00;53.80;;;;;;5059835;28;20044;-76
2021/12/19 12:43:05;;;;;;;18.15;3.60;;;21.00;53.70;;;;;;5081719;28;20053;-78
2021/12/19 12:45:45;;;;;;;;;;;21.00;53.70;;;;;;5053398;28;20041;-78
2021/12/19 12:48:11;;;;;;;18.30;3.70;;;21.00;53.10;;;;;;5057335;28;20368;-75
2021/12/19 12:50:36;;;;;;;17.13;2.90;;;20.90;53.40;;;;;;5058145;28;20040;-78
2021/12/19 12:53:03;;;;;;;13.63;3.45;;;20.90;53.30;;;;;;5065389;28;20053;-78
2021/12/19 12:55:29;;;;;;;11.63;3.30;;;20.90;53.20;;;;;;5060103;28;20052;-76
2021/12/19 12:57:54;;;;;;;13.25;3.25;;;20.90;53.20;;;;;;5052378;28;20037;-76
2021/12/19 13:00:22;;;;;;;16.65;3.28;;;20.90;53.20;;;;;;5047637;28;20049;-75
2021/12/19 13:02:58;;;;;;;17.27;2.75;;;20.90;53.20;;;;;;5043914;28;20037;-77
2021/12/19 13:05:24;;;;;;;12.93;3.00;;;20.90;53.20;;;;;;5045193;28;20546;-77
2021/12/19 13:07:49;;;;;;;10.13;3.00;;;20.90;54.00;;;;;;5439926;23;20021;-74
2021/12/19 13:10:15;;;;;;;19.38;3.30;;;20.90;53.20;;;;;;5017038;28;20046;-77
2021/12/19 13:12:41;;;;;;;12.38;3.00;;;20.90;53.20;;;;;;5025344;28;20041;-78
2021/12/19 13:15:12;;;;;;;14.02;3.08;;;20.90;53.10;;;;;;5023600;28;20423;-77
2021/12/19 13:17:48;;;;;;;12.65;2.95;;;20.90;53.10;;;;;;5024494;28;20053;-79
2021/12/19 13:20:16;;;;;;;12.45;2.63;;;20.90;53.00;;;;;;5023481;28;20581;-77
2021/12/19 13:22:48;;;;;;;9.93;2.72;;;20.90;53.00;;;;;;5024296;28;20084;-77
2021/12/19 13:25:16;;;;;;;9.45;2.13;;;20.80;53.00;;;;;;5023837;28;20056;-77
2021/12/19 13:27:49;;;;;;;10.40;2.50;;;20.80;53.00;;;;;;5024472;28;20046;-77
2021/12/19 13:30:36;;;;;;;11.20;2.83;;;20.80;53.00;;;;;;5004441;28;20501;-77
2021/12/19 13:33:13;;;;;;;13.43;2.63;;;20.90;52.90;;;;;;5003853;28;20034;-78
2021/12/19 13:35:40;;;;;;;12.40;2.60;;;20.90;53.00;;;;;;5005386;28;20068;-78
2021/12/19 13:38:08;;;;;;;9.88;3.10;;;20.80;52.90;;;;;;5004999;28;20125;-78
2021/12/19 13:40:38;;;;;;;8.60;2.80;;;20.80;53.00;;;;;;5023011;28;20111;-78
2021/12/19 13:43:16;;;;;;;13.68;3.03;;;20.80;52.90;;;;;;5024020;28;20045;-76
2021/12/19 13:45:49;;;;;;;10.02;2.33;;;20.80;52.90;;;;;;5014385;28;20087;-77
2021/12/19 13:48:38;;;;;;;11.02;2.65;;;20.80;52.90;;;;;;5024265;28;20196;-78
2021/12/19 13:51:05;;;;;;;;;;;20.80;52.80;;;;;;5024012;28;20052;-78
2021/12/19 13:53:33;;;;;;;12.07;3.15;;;20.80;52.80;;;;;;5023695;28;19921;-78
2021/12/19 13:56:18;;;;;;;13.15;3.15;;;20.80;52.90;;;;;;5023596;28;20057;-77